createdAt,value
2022-07-27T00:01:05.309Z,100329.13
2022-07-27T00:03:33.094Z,100322.34
2022-07-27T00:06:00.925Z,100320.91
2022-07-27T00:08:28.863Z,100316.50
2022-07-27T00:10:57.400Z,100320.06
2022-07-27T00:13:25.212Z,100321.19
2022-07-27T00:15:57.962Z,100319.19
2022-07-27T00:18:25.777Z,100314.81
2022-07-27T00:20:55.266Z,100311.72
2022-07-27T00:23:23.078Z,100318.91
2022-07-27T00:25:50.687Z,100316.38
2022-07-27T00:28:23.382Z,100310.47
2022-07-27T00:30:51.130Z,100307.09
2022-07-27T00:33:18.708Z,100320.94
2022-07-27T00:35:46.742Z,100308.38
2022-07-27T00:38:16.686Z,100298.38
2022-07-27T00:40:44.328Z,100299.22
2022-07-27T00:43:12.198Z,100307.13
2022-07-27T00:45:40.200Z,100306.59
2022-07-27T00:48:08.073Z,100301.50
2022-07-27T00:50:37.738Z,100306.28
2022-07-27T00:53:05.433Z,100303.34
2022-07-27T00:55:34.539Z,100303.34
2022-07-27T00:58:06.288Z,100296.19
2022-07-27T01:00:37.316Z,100299.03
2022-07-27T01:03:08.949Z,100301.88
2022-07-27T01:05:43.201Z,100297.19
2022-07-27T01:08:14.427Z,100297.03
2022-07-27T01:10:44.627Z,100302.28
2022-07-27T01:13:13.468Z,100305.28
2022-07-27T01:15:43.086Z,100305.28
2022-07-27T01:18:28.525Z,100305.00
2022-07-27T01:20:58.545Z,100298.28
2022-07-27T01:23:27.505Z,100307.72
2022-07-27T01:25:56.055Z,100307.00
2022-07-27T01:28:25.054Z,100304.75
2022-07-27T01:30:53.497Z,100306.75
2022-07-27T01:33:28.060Z,100313.09
2022-07-27T01:35:57.450Z,100317.31
2022-07-27T01:38:25.727Z,100318.00
2022-07-27T01:40:54.554Z,100327.88
2022-07-27T01:43:23.716Z,100328.84
2022-07-27T01:45:51.452Z,100328.13
2022-07-27T01:48:19.284Z,100332.09
2022-07-27T01:50:47.965Z,100333.38
2022-07-27T01:53:15.749Z,100336.19
2022-07-27T01:55:43.695Z,100339.28
2022-07-27T01:58:12.263Z,100340.28
2022-07-27T02:00:40.845Z,100344.78
2022-07-27T02:03:10.154Z,100339.59
2022-07-27T02:05:39.298Z,100331.25
2022-07-27T02:08:09.807Z,100335.75
2022-07-27T02:10:58.670Z,100348.44
2022-07-27T02:13:26.494Z,100340.56
2022-07-27T02:15:57.230Z,100353.13
2022-07-27T02:18:36.376Z,100349.00
2022-07-27T02:21:06.630Z,100350.72
2022-07-27T02:23:35.628Z,100343.38
2022-07-27T02:26:04.618Z,100345.06
2022-07-27T02:28:32.687Z,100356.63
2022-07-27T02:31:00.915Z,100349.31
2022-07-27T02:33:28.767Z,100358.63
2022-07-27T02:35:56.425Z,100356.06
2022-07-27T02:38:24.146Z,100376.34
2022-07-27T02:40:52.604Z,100375.50
2022-07-27T02:43:20.713Z,100377.75
2022-07-27T02:45:48.690Z,100377.19
2022-07-27T02:48:16.521Z,100371.84
2022-07-27T02:50:44.771Z,100382.25
2022-07-27T02:53:12.487Z,100376.63
2022-07-27T02:55:40.301Z,100383.66
2022-07-27T02:58:08.204Z,100380.88
2022-07-27T03:00:35.862Z,100381.56
2022-07-27T03:03:04.031Z,100378.03
2022-07-27T03:05:31.675Z,100377.75
2022-07-27T03:08:04.228Z,100378.88
2022-07-27T03:10:32.808Z,100380.56
2022-07-27T03:13:02.030Z,100382.28
2022-07-27T03:15:29.973Z,100382.84
2022-07-27T03:17:58.554Z,100384.53
2022-07-27T03:20:26.482Z,100392.25
2022-07-27T03:22:54.899Z,100394.38
2022-07-27T03:25:23.407Z,100396.63
2022-07-27T03:27:51.153Z,100397.50
2022-07-27T03:30:19.220Z,100398.88
2022-07-27T03:32:48.410Z,100405.50
2022-07-27T03:35:16.142Z,100400.16
2022-07-27T03:37:43.743Z,100402.31
2022-07-27T03:40:12.205Z,100409.88
2022-07-27T03:42:39.931Z,100412.00
2022-07-27T03:45:08.679Z,100411.03
2022-07-27T03:47:36.418Z,100421.44
2022-07-27T03:50:05.089Z,100423.28
2022-07-27T03:52:34.451Z,100419.59
2022-07-27T03:55:02.170Z,100415.22
2022-07-27T03:57:31.085Z,100413.81
2022-07-27T03:59:59.061Z,100418.44
2022-07-27T04:02:27.112Z,100418.03
2022-07-27T04:04:54.771Z,100424.06
2022-07-27T04:07:22.498Z,100421.66
2022-07-27T04:09:50.722Z,100421.66
2022-07-27T04:12:20.189Z,100432.06
2022-07-27T04:14:49.036Z,100438.69
2022-07-27T04:17:53.609Z,100436.53
2022-07-27T04:20:06.298Z,100437.94
2022-07-27T04:22:35.125Z,100426.34
2022-07-27T04:25:03.294Z,100433.38
2022-07-27T04:27:31.219Z,100435.81
2022-07-27T04:29:58.847Z,100433.38
2022-07-27T04:32:26.538Z,100434.81
2022-07-27T04:34:54.157Z,100428.78
2022-07-27T04:37:22.740Z,100432.53
2022-07-27T04:39:50.483Z,100429.63
2022-07-27T04:42:18.447Z,100431.69
2022-07-27T04:44:46.130Z,100438.19
2022-07-27T04:47:13.665Z,100440.34
2022-07-27T04:49:41.234Z,100439.19
2022-07-27T04:52:08.996Z,100444.38
2022-07-27T04:54:36.667Z,100446.06
2022-07-27T04:57:04.386Z,100440.69
2022-07-27T04:59:32.366Z,100445.06
2022-07-27T05:01:59.923Z,100444.06
2022-07-27T05:04:27.724Z,100436.59
2022-07-27T05:07:00.450Z,100439.28
2022-07-27T05:09:28.365Z,100434.16
2022-07-27T05:11:55.958Z,100438.63
2022-07-27T05:14:24.862Z,100439.03
2022-07-27T05:16:54.114Z,100440.38
2022-07-27T05:19:22.620Z,100439.94
2022-07-27T05:22:09.386Z,100427.47
2022-07-27T05:24:37.046Z,100420.25
2022-07-27T05:27:06.107Z,100427.84
2022-07-27T05:29:33.890Z,100420.34
2022-07-27T05:32:01.571Z,100431.84
2022-07-27T05:34:29.485Z,100423.97
2022-07-27T05:36:57.417Z,100419.66
2022-07-27T05:39:25.119Z,100410.03
2022-07-27T05:41:52.793Z,100410.50
2022-07-27T05:44:20.482Z,100411.63
2022-07-27T05:46:48.084Z,100410.88
2022-07-27T05:49:17.636Z,100414.16
2022-07-27T05:51:45.394Z,100403.50
2022-07-27T05:54:13.023Z,100412.13
2022-07-27T05:56:41.424Z,100410.03
2022-07-27T05:59:09.322Z,100408.56
2022-07-27T06:01:38.218Z,100402.00
2022-07-27T06:04:06.365Z,100404.75
2022-07-27T06:06:54.039Z,100404.69
2022-07-27T06:09:21.789Z,100401.69
2022-07-27T06:11:49.961Z,100395.47
2022-07-27T06:14:17.586Z,100406.59
2022-07-27T06:16:47.887Z,100404.44
2022-07-27T06:19:15.913Z,100409.50
2022-07-27T06:21:45.695Z,100405.50
2022-07-27T06:24:16.203Z,100405.81
2022-07-27T06:26:44.489Z,100405.69
2022-07-27T06:29:13.081Z,100414.09
2022-07-27T06:31:41.273Z,100412.63
2022-07-27T06:34:12.390Z,100408.25
2022-07-27T06:36:45.302Z,100410.50
2022-07-27T06:39:13.714Z,100406.34
2022-07-27T06:41:41.833Z,100399.13
2022-07-27T06:44:14.289Z,100409.06
2022-07-27T06:46:42.670Z,100400.03
2022-07-27T06:49:11.688Z,100397.66
2022-07-27T06:51:39.956Z,100399.34
2022-07-27T06:54:07.595Z,100394.16
2022-07-27T06:56:35.513Z,100390.59
2022-07-27T06:59:03.215Z,100393.28
2022-07-27T07:01:31.120Z,100390.28
2022-07-27T07:03:59.950Z,100389.94
2022-07-27T07:06:28.278Z,100380.50
2022-07-27T07:08:56.158Z,100381.16
2022-07-27T07:11:23.770Z,100372.56
2022-07-27T07:13:51.473Z,100386.69
2022-07-27T07:16:19.195Z,100385.81
2022-07-27T07:18:52.255Z,100391.22
2022-07-27T07:21:21.077Z,100375.69
2022-07-27T07:23:49.170Z,100380.53
2022-07-27T07:26:19.552Z,100379.66
2022-07-27T07:28:47.247Z,100381.00
2022-07-27T07:31:14.917Z,100378.31
2022-07-27T07:33:42.910Z,100385.44
2022-07-27T07:36:12.823Z,100383.00
2022-07-27T07:38:44.307Z,100376.34
2022-07-27T07:41:12.720Z,100372.78
2022-07-27T07:43:42.282Z,100375.78
2022-07-27T07:46:10.124Z,100384.81
2022-07-27T07:48:39.641Z,100379.72
2022-07-27T07:51:08.064Z,100378.44
2022-07-27T07:53:41.174Z,100375.13
2022-07-27T07:56:09.482Z,100375.25
2022-07-27T07:58:37.283Z,100377.56
2022-07-27T08:01:04.893Z,100378.78
2022-07-27T08:03:32.728Z,100369.41
2022-07-27T08:06:01.745Z,100371.63
2022-07-27T08:08:30.834Z,100378.94
2022-07-27T08:10:58.481Z,100376.44
2022-07-27T08:13:26.696Z,100375.50
2022-07-27T08:15:54.434Z,100381.38
2022-07-27T08:18:25.362Z,100385.97
2022-07-27T08:20:53.795Z,100381.78
2022-07-27T08:23:21.992Z,100382.47
2022-07-27T08:25:49.853Z,100383.16
2022-07-27T08:28:17.988Z,100386.41
2022-07-27T08:30:46.836Z,100376.25
2022-07-27T08:33:14.434Z,100372.97
2022-07-27T08:35:42.017Z,100374.19
2022-07-27T08:38:09.848Z,100370.06
2022-07-27T08:40:41.788Z,100377.91
2022-07-27T08:43:13.144Z,100376.13
2022-07-27T08:45:42.087Z,100374.38
2022-07-27T08:48:14.015Z,100381.34
2022-07-27T08:50:42.909Z,100384.38
2022-07-27T08:53:13.623Z,100392.09
2022-07-27T08:55:43.973Z,100380.41
2022-07-27T08:58:13.950Z,100385.59
2022-07-27T09:00:48.361Z,100385.06
2022-07-27T09:03:20.704Z,100382.06
2022-07-27T09:05:53.033Z,100383.81
2022-07-27T09:08:25.532Z,100385.47
2022-07-27T09:10:56.338Z,100383.69
2022-07-27T09:13:31.802Z,100382.78
2022-07-27T09:16:18.240Z,100377.09
2022-07-27T09:18:48.327Z,100379.72
2022-07-27T09:21:22.542Z,100375.41
2022-07-27T09:23:53.915Z,100378.91
2022-07-27T09:26:33.142Z,100377.41
2022-07-27T09:29:03.233Z,100379.41
2022-07-27T09:31:32.382Z,100370.34
2022-07-27T09:34:02.209Z,100370.75
2022-07-27T09:36:34.287Z,100371.72
2022-07-27T09:39:05.735Z,100376.41
2022-07-27T09:41:45.962Z,100374.47
2022-07-27T09:44:42.963Z,100373.06
2022-07-27T09:47:29.626Z,100379.13
2022-07-27T09:50:16.582Z,100382.94
2022-07-27T09:52:45.561Z,100370.84
2022-07-27T09:55:13.290Z,100378.72
2022-07-27T09:57:55.924Z,100377.09
2022-07-27T10:00:25.860Z,100381.16
2022-07-27T10:02:53.949Z,100380.94
2022-07-27T10:05:23.182Z,100382.22
2022-07-27T10:07:53.502Z,100378.69
2022-07-27T10:10:23.012Z,100380.88
2022-07-27T10:12:55.238Z,100374.75
2022-07-27T10:15:24.920Z,100376.00
2022-07-27T10:18:15.548Z,100379.38
2022-07-27T10:20:47.826Z,100375.63
2022-07-27T10:23:27.401Z,100375.88
2022-07-27T10:26:17.675Z,100376.22
2022-07-27T10:28:54.016Z,100374.75
2022-07-27T10:31:25.366Z,100375.28
2022-07-27T10:33:55.462Z,100371.50
2022-07-27T10:36:23.106Z,100375.72
2022-07-27T10:38:53.644Z,100376.78
2022-07-27T10:41:25.386Z,100378.09
2022-07-27T10:44:15.234Z,100370.78
2022-07-27T10:46:50.918Z,100377.28
2022-07-27T10:49:40.749Z,100374.31
2022-07-27T10:52:48.313Z,100374.75
2022-07-27T10:55:35.513Z,100362.84
2022-07-27T10:58:03.159Z,100366.00
2022-07-27T11:00:53.722Z,100374.75
2022-07-27T11:03:34.832Z,100365.50
2022-07-27T11:06:33.020Z,100363.06
2022-07-27T11:10:00.003Z,100366.22
2022-07-27T11:11:54.618Z,100366.91
2022-07-27T11:14:30.748Z,100364.44
2022-07-27T11:17:39.831Z,100366.50
2022-07-27T11:19:59.234Z,100365.03
2022-07-27T11:23:14.006Z,100371.72
2022-07-27T11:25:26.634Z,100365.03
2022-07-27T11:27:54.366Z,100362.72
2022-07-27T11:30:27.404Z,100365.88
2022-07-27T11:32:56.342Z,100364.59
2022-07-27T11:35:27.294Z,100358.97
2022-07-27T11:38:01.318Z,100361.25
2022-07-27T11:43:33.593Z,100364.41
2022-07-27T11:46:23.450Z,100369.84
2022-07-27T11:49:17.491Z,100368.59
2022-07-27T11:51:48.123Z,100369.66
2022-07-27T11:54:24.677Z,100366.09
2022-07-27T11:56:57.652Z,100356.88
2022-07-27T11:59:33.451Z,100359.81
2022-07-27T12:02:07.710Z,100359.63
2022-07-27T12:04:38.590Z,100356.88
2022-07-27T12:07:24.056Z,100360.63
2022-07-27T12:09:54.690Z,100354.13
2022-07-27T12:12:30.649Z,100353.94
2022-07-27T12:15:16.358Z,100352.66
2022-07-27T12:17:56.191Z,100355.41
2022-07-27T12:20:32.369Z,100356.66
2022-07-27T12:23:08.531Z,100346.31
2022-07-27T12:25:39.111Z,100356.41
2022-07-27T12:28:15.616Z,100357.22
2022-07-27T12:30:49.449Z,100351.25
2022-07-27T12:33:28.290Z,100340.81
2022-07-27T12:35:57.887Z,100341.69
2022-07-27T12:38:25.854Z,100343.13
2022-07-27T12:41:00.547Z,100345.78
2022-07-27T12:43:29.594Z,100349.53
2022-07-27T12:45:57.307Z,100337.16
2022-07-27T12:48:28.178Z,100335.13
2022-07-27T12:51:01.708Z,100333.47
2022-07-27T12:53:31.489Z,100337.41
2022-07-27T12:56:04.161Z,100335.72
2022-07-27T12:58:32.078Z,100337.84
2022-07-27T13:01:00.113Z,100334.06
2022-07-27T13:03:28.279Z,100327.97
2022-07-27T13:05:55.916Z,100335.09
2022-07-27T13:08:24.092Z,100333.88
2022-07-27T13:10:53.838Z,100324.41
2022-07-27T13:13:24.985Z,100326.19
2022-07-27T13:15:55.371Z,100324.19
2022-07-27T13:18:24.151Z,100324.25
2022-07-27T13:20:52.251Z,100323.47
2022-07-27T13:23:20.887Z,100319.97
2022-07-27T13:25:49.032Z,100317.72
2022-07-27T13:28:16.718Z,100322.13
2022-07-27T13:30:44.356Z,100324.19
2022-07-27T13:33:12.512Z,100317.72
2022-07-27T13:35:42.698Z,100317.50
2022-07-27T13:38:16.088Z,100315.66
2022-07-27T13:40:45.430Z,100317.06
2022-07-27T13:43:13.903Z,100316.75
2022-07-27T13:45:43.432Z,100308.13
2022-07-27T13:48:12.264Z,100312.63
2022-07-27T13:50:41.537Z,100311.41
2022-07-27T13:53:09.441Z,100313.00
2022-07-27T13:55:44.847Z,100305.66
2022-07-27T13:58:13.058Z,100312.63
2022-07-27T14:00:41.172Z,100313.84
2022-07-27T14:03:11.380Z,100307.13
2022-07-27T14:05:46.751Z,100308.53
2022-07-27T14:08:19.186Z,100305.16
2022-07-27T14:10:46.978Z,100309.47
2022-07-27T14:13:16.397Z,100313.91
2022-07-27T14:15:50.588Z,100308.78
2022-07-27T14:18:24.616Z,100312.63
2022-07-27T14:20:52.959Z,100315.66
2022-07-27T14:23:21.101Z,100306.88
2022-07-27T14:25:48.905Z,100312.44
2022-07-27T14:28:17.578Z,100314.78
2022-07-27T14:30:46.688Z,100321.63
2022-07-27T14:33:15.015Z,100319.25
2022-07-27T14:35:44.347Z,100315.09
2022-07-27T14:38:12.323Z,100314.34
2022-07-27T14:40:40.704Z,100319.50
2022-07-27T14:43:09.371Z,100319.72
2022-07-27T14:45:45.071Z,100322.75
2022-07-27T14:48:22.724Z,100321.50
2022-07-27T14:50:53.399Z,100329.81
2022-07-27T14:53:21.363Z,100325.38
2022-07-27T14:55:49.003Z,100326.94
2022-07-27T14:58:17.195Z,100328.50
2022-07-27T15:00:45.200Z,100323.88
2022-07-27T15:03:14.778Z,100321.81
2022-07-27T15:05:49.762Z,100319.91
2022-07-27T15:08:24.659Z,100329.06
2022-07-27T15:10:52.490Z,100319.50
2022-07-27T15:13:20.712Z,100329.75
2022-07-27T15:15:48.914Z,100322.94
2022-07-27T15:18:21.130Z,100334.56
2022-07-27T15:20:48.873Z,100330.75
2022-07-27T15:23:16.770Z,100332.19
2022-07-27T15:25:45.058Z,100323.16
2022-07-27T15:28:12.963Z,100321.97
2022-07-27T15:30:40.852Z,100324.22
2022-07-27T15:33:09.465Z,100327.53
2022-07-27T15:35:38.157Z,100327.78
2022-07-27T15:38:06.017Z,100338.00
2022-07-27T15:40:37.368Z,100333.97
2022-07-27T15:43:07.592Z,100336.34
2022-07-27T15:45:41.168Z,100329.47
2022-07-27T15:48:10.970Z,100339.34
2022-07-27T15:50:40.580Z,100340.16
2022-07-27T15:53:09.082Z,100346.13
2022-07-27T15:55:39.286Z,100342.81
2022-07-27T15:58:07.553Z,100352.53
2022-07-27T16:00:40.451Z,100356.34
2022-07-27T16:03:10.683Z,100354.91
2022-07-27T16:05:40.105Z,100347.94
2022-07-27T16:08:09.842Z,100350.03
2022-07-27T16:10:39.225Z,100356.78
2022-07-27T16:13:08.254Z,100351.94
2022-07-27T16:15:56.298Z,100349.34
2022-07-27T16:18:24.048Z,100363.97
2022-07-27T16:20:52.748Z,100358.56
2022-07-27T16:23:22.242Z,100360.44
2022-07-27T16:26:07.870Z,100354.38
2022-07-27T16:28:40.872Z,100357.28
2022-07-27T16:31:11.271Z,100358.47
2022-07-27T16:33:39.560Z,100359.31
2022-07-27T16:36:08.838Z,100357.81
2022-07-27T16:38:49.735Z,100371.41
2022-07-27T16:41:22.625Z,100364.50
2022-07-27T16:43:50.408Z,100364.28
2022-07-27T16:46:18.489Z,100365.91
2022-07-27T16:48:46.248Z,100363.56
2022-07-27T16:51:15.476Z,100370.72
2022-07-27T16:53:46.251Z,100365.47
2022-07-27T16:56:16.952Z,100368.47
2022-07-27T16:58:45.251Z,100368.88
2022-07-27T17:01:21.861Z,100373.06
2022-07-27T17:03:56.519Z,100374.56
2022-07-27T17:06:25.999Z,100373.69
2022-07-27T17:08:54.261Z,100379.94
2022-07-27T17:11:22.546Z,100385.47
2022-07-27T17:13:51.145Z,100390.06
2022-07-27T17:16:28.367Z,100389.84
2022-07-27T17:18:58.444Z,100393.13
2022-07-27T17:21:26.098Z,100394.38
2022-07-27T17:23:53.934Z,100393.84
2022-07-27T17:26:22.480Z,100395.03
2022-07-27T17:28:52.482Z,100401.22
2022-07-27T17:31:21.446Z,100408.28
2022-07-27T17:33:50.405Z,100399.03
2022-07-27T17:36:18.632Z,100404.88
2022-07-27T17:38:48.851Z,100399.94
2022-07-27T17:41:23.705Z,100416.41
2022-07-27T17:43:55.115Z,100408.72
2022-07-27T17:46:24.743Z,100410.56
2022-07-27T17:48:54.185Z,100416.09
2022-07-27T17:51:23.277Z,100421.09
2022-07-27T17:53:51.584Z,100411.22
2022-07-27T17:56:19.302Z,100418.03
2022-07-27T17:58:48.244Z,100425.91
2022-07-27T18:01:16.106Z,100425.00
2022-07-27T18:03:44.113Z,100431.88
2022-07-27T18:06:11.887Z,100434.41
2022-07-27T18:08:39.667Z,100431.22
2022-07-27T18:11:12.187Z,100433.00
2022-07-27T18:13:40.579Z,100435.84
2022-07-27T18:16:13.441Z,100439.31
2022-07-27T18:18:42.947Z,100442.41
2022-07-27T18:21:11.121Z,100449.03
2022-07-27T18:23:39.977Z,100447.50
2022-07-27T18:26:09.991Z,100441.09
2022-07-27T18:28:40.122Z,100449.06
2022-07-27T18:31:10.841Z,100442.81
2022-07-27T18:33:40.588Z,100436.84
2022-07-27T18:36:08.345Z,100444.88
2022-07-27T18:38:36.787Z,100449.84
2022-07-27T18:41:04.462Z,100455.63
2022-07-27T18:43:32.067Z,100449.94
2022-07-27T18:46:00.935Z,100455.38
2022-07-27T18:48:28.917Z,100457.63
2022-07-27T18:50:56.916Z,100457.16
2022-07-27T18:53:25.165Z,100461.47
2022-07-27T18:55:56.202Z,100470.06
2022-07-27T18:58:25.372Z,100468.94
2022-07-27T19:00:54.961Z,100476.63
2022-07-27T19:03:24.626Z,100477.78
2022-07-27T19:05:55.867Z,100479.84
2022-07-27T19:08:24.410Z,100478.34
2022-07-27T19:10:53.031Z,100470.13
2022-07-27T19:13:21.749Z,100480.28
2022-07-27T19:15:49.503Z,100478.31
2022-07-27T19:18:25.242Z,100480.38
2022-07-27T19:20:56.477Z,100482.63
2022-07-27T19:23:25.571Z,100485.88
2022-07-27T19:25:59.258Z,100485.59
2022-07-27T19:28:27.787Z,100489.72
2022-07-27T19:30:55.497Z,100489.22
2022-07-27T19:33:23.176Z,100486.41
2022-07-27T19:35:52.681Z,100489.00
2022-07-27T19:38:20.552Z,100486.47
2022-07-27T19:40:48.143Z,100494.59
2022-07-27T19:43:16.578Z,100496.16
2022-07-27T19:45:44.751Z,100494.88
2022-07-27T19:48:12.639Z,100488.44
2022-07-27T19:50:40.963Z,100497.41
2022-07-27T19:53:08.863Z,100491.91
2022-07-27T19:55:36.684Z,100494.94
2022-07-27T19:58:04.372Z,100491.78
2022-07-27T20:00:32.789Z,100487.38
2022-07-27T20:03:02.211Z,100498.75
2022-07-27T20:05:30.034Z,100500.47
2022-07-27T20:07:58.075Z,100504.38
2022-07-27T20:10:26.108Z,100501.84
2022-07-27T20:12:54.124Z,100496.25
2022-07-27T20:15:22.592Z,100491.75
2022-07-27T20:17:51.035Z,100500.75
2022-07-27T20:20:20.019Z,100504.47
2022-07-27T20:22:48.189Z,100506.88
2022-07-27T20:25:16.281Z,100514.69
2022-07-27T20:27:45.354Z,100510.00
2022-07-27T20:30:20.115Z,100505.56
2022-07-27T20:32:49.430Z,100515.38
2022-07-27T20:35:17.952Z,100511.00
2022-07-27T20:37:47.405Z,100516.56
2022-07-27T20:40:16.093Z,100516.75
2022-07-27T20:42:44.976Z,100518.63
2022-07-27T20:45:14.649Z,100518.97
2022-07-27T20:47:43.409Z,100514.75
2022-07-27T20:50:13.213Z,100511.56
2022-07-27T20:52:43.163Z,100520.69
2022-07-27T20:55:11.438Z,100521.38
2022-07-27T20:57:39.189Z,100522.91
2022-07-27T21:00:07.864Z,100525.94
2022-07-27T21:02:36.052Z,100532.53
2022-07-27T21:05:05.134Z,100532.03
2022-07-27T21:07:33.135Z,100532.31
2022-07-27T21:10:00.760Z,100534.88
2022-07-27T21:12:28.415Z,100523.63
2022-07-27T21:14:58.363Z,100535.13
2022-07-27T21:17:26.408Z,100541.38
2022-07-27T21:19:54.144Z,100549.63
2022-07-27T21:22:21.994Z,100555.34
2022-07-27T21:24:49.782Z,100567.16
2022-07-27T21:27:20.833Z,100564.16
2022-07-27T21:29:49.268Z,100568.53
2022-07-27T21:32:18.278Z,100574.28
2022-07-27T21:34:46.138Z,100574.94
2022-07-27T21:37:14.139Z,100568.41
2022-07-27T21:39:42.238Z,100572.94
2022-07-27T21:42:10.011Z,100578.34
2022-07-27T21:44:39.480Z,100574.78
2022-07-27T21:47:13.147Z,100579.88
2022-07-27T21:49:41.908Z,100580.22
2022-07-27T21:52:11.309Z,100576.00
2022-07-27T21:54:39.223Z,100572.94
2022-07-27T21:57:07.650Z,100576.66
2022-07-27T21:59:36.187Z,100573.78
2022-07-27T22:02:03.862Z,100564.53
2022-07-27T22:04:31.591Z,100573.28
2022-07-27T22:06:59.376Z,100575.66
2022-07-27T22:09:27.161Z,100581.88
2022-07-27T22:11:56.457Z,100572.63
2022-07-27T22:14:24.573Z,100574.81
2022-07-27T22:16:56.701Z,100582.22
2022-07-27T22:19:24.654Z,100577.66
2022-07-27T22:21:52.407Z,100578.69
2022-07-27T22:24:22.916Z,100580.72
2022-07-27T22:26:51.183Z,100580.34
2022-07-27T22:29:18.871Z,100578.69
2022-07-27T22:31:47.261Z,100581.19
2022-07-27T22:34:15.299Z,100585.41
2022-07-27T22:36:43.580Z,100587.78
2022-07-27T22:39:12.957Z,100589.59
2022-07-27T22:41:41.484Z,100592.81
2022-07-27T22:44:09.688Z,100598.53
2022-07-27T22:46:37.859Z,100604.59
2022-07-27T22:49:05.554Z,100600.38
2022-07-27T22:51:49.741Z,100606.78
2022-07-27T22:54:20.948Z,100604.75
2022-07-27T22:56:48.838Z,100604.59
2022-07-27T22:59:16.555Z,100610.66
2022-07-27T23:01:45.995Z,100607.09
2022-07-27T23:04:16.907Z,100600.38
2022-07-27T23:06:47.316Z,100603.69
2022-07-27T23:09:15.665Z,100599.81
2022-07-27T23:11:44.221Z,100602.50
2022-07-27T23:14:14.325Z,100606.19
2022-07-27T23:16:43.215Z,100606.53
2022-07-27T23:19:11.138Z,100605.34
2022-07-27T23:21:41.815Z,100606.19
2022-07-27T23:24:11.780Z,100607.19
2022-07-27T23:26:42.994Z,100613.91
2022-07-27T23:29:10.790Z,100612.22
2022-07-27T23:31:38.589Z,100615.75
2022-07-27T23:34:06.259Z,100609.88
2022-07-27T23:36:33.901Z,100609.03
2022-07-27T23:39:01.701Z,100615.56
2022-07-27T23:41:29.518Z,100615.91
2022-07-27T23:43:57.272Z,100619.63
2022-07-27T23:46:26.824Z,100620.47
2022-07-27T23:48:54.918Z,100627.00
2022-07-27T23:51:22.762Z,100624.81
2022-07-27T23:53:50.521Z,100629.00
2022-07-27T23:56:18.104Z,100632.84
2022-07-27T23:58:46.002Z,100629.28
